Time;durP1;ratioP1;P1;durP2;ratioP2;P2;SDS_P1;SDS_P2;PMS_P1;PMS_P2;Temp;Humidity;BMP_temperature;BMP_pressure;BME280_temperature;BME280_humidity;BME280_pressure;Samples;Min_cycle;Max_cycle;Signal;HPM_P1;HPM_P2
2023/05/02 00:00:07;;;;;;;8.98;3.77;;;;;;;7.44;54.20;101057.65;1733205;82;21039;-55
2023/05/02 00:02:36;;;;;;;9.00;4.40;;;;;;;7.43;54.30;101061.39;1733120;83;21459;-55
2023/05/02 00:05:10;;;;;;;8.25;3.47;;;;;;;7.42;54.40;101074.67;1733387;81;21612;-55
2023/05/02 00:07:39;;;;;;;10.50;3.77;;;;;;;7.38;54.44;101071.92;1733132;81;21086;-54
2023/05/02 00:10:09;;;;;;;7.97;3.52;;;;;;;7.38;54.59;101074.14;1733066;81;21045;-56
2023/05/02 00:12:39;;;;;;;6.70;3.10;;;;;;;7.37;54.64;101078.39;1733181;83;21050;-57
2023/05/02 00:15:09;;;;;;;6.95;3.37;;;;;;;7.30;54.67;101079.03;1733315;83;21074;-56
2023/05/02 00:17:41;;;;;;;6.67;3.30;;;;;;;7.24;54.79;101082.91;1733206;81;21509;-56
2023/05/02 00:20:11;;;;;;;9.38;3.47;;;;;;;7.24;55.01;101081.55;1733120;83;21332;-55
2023/05/02 00:22:40;;;;;;;8.20;3.37;;;;;;;7.25;55.14;101085.47;1733711;82;21003;-56
2023/05/02 00:25:14;;;;;;;9.08;3.98;;;;;;;7.25;55.05;101085.47;1733783;82;21040;-56
2023/05/02 00:27:40;;;;;;;7.83;3.50;;;;;;;7.25;55.02;101084.11;1733095;81;21039;-55
2023/05/02 00:30:09;;;;;;;7.72;3.50;;;;;;;7.21;55.12;101078.63;1733464;83;21513;-57
2023/05/02 00:32:39;;;;;;;8.60;3.55;;;;;;;7.18;55.24;101078.09;1733266;81;21145;-56
2023/05/02 00:35:09;;;;;;;14.28;4.00;;;;;;;7.12;55.36;101087.73;1733120;81;21111;-54
2023/05/02 00:37:38;;;;;;;9.15;3.35;;;;;;;7.08;55.50;101084.97;1733131;81;21015;-56
2023/05/02 00:40:08;;;;;;;5.97;3.47;;;;;;;7.07;55.52;101085.98;1733235;83;21047;-56
2023/05/02 00:42:36;;;;;;;8.55;4.08;;;;;;;7.06;55.61;101087.50;1733161;81;21011;-55
2023/05/02 00:45:06;;;;;;;7.05;3.33;;;;;;;7.06;55.61;101093.81;1733015;82;21043;-57
2023/05/02 00:47:35;;;;;;;9.20;3.30;;;;;;;7.04;55.70;101096.34;1733106;83;21113;-55
2023/05/02 00:50:05;;;;;;;6.78;3.60;;;;;;;7.03;55.78;101094.63;1733130;81;21051;-54
2023/05/02 00:52:33;;;;;;;10.35;3.22;;;;;;;6.99;55.84;101092.73;1733159;81;21098;-57
2023/05/02 00:55:05;;;;;;;7.95;3.30;;;;;;;6.98;55.93;101100.05;1733344;81;21525;-55
2023/05/02 00:57:35;;;;;;;6.80;2.90;;;;;;;6.98;56.00;101109.59;1712909;83;21086;-54
2023/05/02 01:00:05;;;;;;;9.85;3.60;;;;;;;6.96;55.98;101109.39;1733199;82;21472;-55
2023/05/02 01:02:50;;;;;;;7.08;3.08;;;;;;;6.92;56.17;101112.94;1733568;83;21027;-56
2023/05/02 01:05:29;;;;;;;9.05;3.27;;;;;;;6.89;56.28;101117.84;1733273;81;21042;-56
2023/05/02 01:08:03;;;;;;;8.95;3.10;;;;;;;6.87;56.38;101119.86;1733060;81;21267;-55
2023/05/02 01:10:57;;;;;;;7.33;3.27;;;;;;;6.87;56.32;101118.50;1733442;81;21054;-56
2023/05/02 01:13:30;;;;;;;6.85;2.90;;;;;;;6.88;56.33;101117.49;1733215;83;21043;-56
2023/05/02 01:15:59;;;;;;;6.45;2.80;;;;;;;6.84;56.38;101122.91;1733081;81;21054;-54
2023/05/02 01:18:30;;;;;;;6.37;2.55;;;;;;;6.82;56.38;101122.20;1733304;81;21082;-57
2023/05/02 01:21:02;;;;;;;7.15;2.77;;;;;;;6.80;56.47;101117.42;1733244;83;21058;-56
2023/05/02 01:24:03;;;;;;;6.67;2.27;;;;;;;6.81;56.44;101124.58;1733089;83;21067;-55
2023/05/02 01:26:38;;;;;;;6.10;2.90;;;;;;;6.82;56.26;101122.20;1733194;81;21443;-56
2023/05/02 01:29:07;;;;;;;5.47;2.50;;;;;;;6.79;56.16;101124.73;1731769;81;21487;-56
2023/05/02 01:31:41;;;;;;;8.23;2.50;;;;;;;6.79;56.18;101129.32;1733461;82;21518;-54
2023/05/02 01:34:10;;;;;;;5.28;2.55;;;;;;;6.74;56.25;101124.84;1732958;81;21483;-56
2023/05/02 01:36:43;;;;;;;9.50;2.98;;;;;;;6.70;56.51;101128.89;1733415;81;21059;-58
2023/05/02 01:39:20;;;;;;;5.05;2.87;;;;;;;6.67;56.84;101132.28;1733111;81;21011;-56
2023/05/02 01:41:51;;;;;;;9.68;3.52;;;;;;;6.67;56.79;101129.55;1712816;83;21074;-55
2023/05/02 01:44:23;;;;;;;6.58;2.98;;;;;;;6.67;56.69;101131.42;1733534;81;20984;-55
2023/05/02 01:46:52;;;;;;;9.73;3.00;;;;;;;6.67;56.70;101136.86;1733191;83;21043;-56
2023/05/02 01:49:20;;;;;;;5.40;2.40;;;;;;;6.66;56.67;101136.52;1733223;83;21034;-54
2023/05/02 01:51:49;;;;;;;5.33;2.33;;;;;;;6.64;56.65;101134.45;1733134;82;21023;-55
2023/05/02 01:54:22;;;;;;;7.78;2.45;;;;;;;6.62;56.66;101139.20;1733068;82;21054;-55
2023/05/02 01:56:50;;;;;;;5.42;2.62;;;;;;;6.59;56.70;101140.86;1733421;81;21431;-55
2023/05/02 01:59:21;;;;;;;4.67;2.40;;;;;;;6.56;56.77;101137.95;1733254;83;21485;-55
2023/05/02 02:01:50;;;;;;;6.72;2.60;;;;;;;6.56;56.84;101135.73;1754116;82;21046;-55
2023/05/02 02:04:19;;;;;;;5.97;2.55;;;;;;;6.51;56.92;101131.25;1757445;80;21104;-56
2023/05/02 02:06:56;;;;;;;5.67;2.45;;;;;;;6.49;56.96;101134.09;1757519;82;21037;-56
2023/05/02 02:09:26;;;;;;;5.72;2.25;;;;;;;6.47;57.02;101132.03;1732291;82;21034;-55
2023/05/02 02:12:13;;;;;;;5.22;2.52;;;;;;;6.39;57.13;101131.94;1757571;82;21422;-56
2023/05/02 02:14:45;;;;;;;;;;;;;;;6.36;57.25;101137.69;1759765;80;21543;-56
2023/05/02 02:17:31;;;;;;;4.72;2.65;;;;;;;6.36;57.31;101139.05;1757437;80;20464;-56
2023/05/02 02:20:02;;;;;;;5.50;2.25;;;;;;;6.32;57.32;101137.64;1757138;80;21030;-56
2023/05/02 02:22:33;;;;;;;7.83;2.27;;;;;;;6.31;57.29;101144.09;1757198;82;20982;-56
2023/05/02 02:25:02;;;;;;;5.28;2.33;;;;;;;6.27;57.36;101146.77;1757092;82;21073;-57
2023/05/02 02:27:31;;;;;;;5.55;2.47;;;;;;;6.23;57.46;101145.36;1757341;82;21414;-55
2023/05/02 02:30:00;;;;;;;6.40;2.40;;;;;;;6.23;57.51;101149.44;1757261;80;21022;-56
2023/05/02 02:32:29;;;;;;;6.15;2.35;;;;;;;6.25;57.40;101155.08;1757316;82;21065;-56
2023/05/02 02:34:58;;;;;;;9.00;2.80;;;;;;;6.25;57.88;101148.78;1757216;80;21496;-56
2023/05/02 02:37:34;;;;;;;10.58;3.27;;;;;;;6.23;58.12;101142.63;1730303;82;21470;-56
2023/05/02 02:40:32;;;;;;;7.58;2.22;;;;;;;6.20;58.13;101140.22;1752260;80;21042;-55
2023/05/02 02:43:32;;;;;;;3.95;2.25;;;;;;;6.21;57.95;101144.65;1757204;80;21013;-55
2023/05/02 02:46:32;;;;;;;5.75;2.62;;;;;;;6.22;57.71;101144.50;1757434;82;21448;-57
2023/05/02 02:49:12;;;;;;;5.00;2.42;;;;;;;6.20;57.69;101141.58;1757448;81;21085;-55
2023/05/02 02:51:46;;;;;;;5.03;2.40;;;;;;;6.18;57.67;101147.67;1757382;80;21069;-58
2023/05/02 02:54:32;;;;;;;7.03;2.40;;;;;;;6.14;57.75;101156.64;1755680;80;21394;-56
2023/05/02 02:57:09;;;;;;;8.45;2.35;;;;;;;6.12;57.76;101160.52;1756736;80;21026;-55
2023/05/02 02:59:41;;;;;;;6.40;2.45;;;;;;;6.12;57.78;101151.00;1756963;80;21430;-55
2023/05/02 03:02:14;;;;;;;5.83;2.77;;;;;;;6.13;57.52;101158.16;1757113;80;21045;-55
2023/05/02 03:04:43;;;;;;;7.50;2.50;;;;;;;6.14;57.25;101155.78;1757205;80;21073;-56
2023/05/02 03:07:11;;;;;;;9.78;2.80;;;;;;;6.17;57.05;101159.06;1757433;82;21046;-55
2023/05/02 03:09:45;;;;;;;4.30;2.30;;;;;;;6.19;56.96;101165.72;1757293;81;21026;-56
2023/05/02 03:12:16;;;;;;;5.87;2.30;;;;;;;6.17;57.11;101166.37;1757088;81;21500;-56
2023/05/02 03:14:46;;;;;;;8.28;3.00;;;;;;;6.14;57.29;101163.95;1757438;82;21022;-55
2023/05/02 03:17:15;;;;;;;7.62;2.98;;;;;;;6.12;57.54;101163.24;1757200;80;21058;-56
2023/05/02 03:19:44;;;;;;;6.72;2.90;;;;;;;6.13;57.77;101174.48;1757207;81;21022;-54
2023/05/02 03:22:14;;;;;;;7.05;2.70;;;;;;;6.10;57.89;101177.50;1757303;80;21422;-57
2023/05/02 03:24:43;;;;;;;5.12;2.60;;;;;;;6.10;58.03;101182.94;1757243;80;21031;-55
2023/05/02 03:27:12;;;;;;;6.45;2.87;;;;;;;6.13;58.01;101183.50;1757220;82;21073;-56
2023/05/02 03:29:42;;;;;;;7.33;2.60;;;;;;;6.18;58.23;101179.82;1757087;80;21006;-55
2023/05/02 03:32:11;;;;;;;12.13;3.00;;;;;;;6.18;58.59;101184.41;1757273;80;21045;-56
2023/05/02 03:34:41;;;;;;;12.30;3.08;;;;;;;6.19;58.78;101187.48;1757218;81;21500;-56
2023/05/02 03:37:10;;;;;;;5.97;3.00;;;;;;;6.23;58.86;101191.62;1757304;82;21015;-56
2023/05/02 03:39:39;;;;;;;13.70;3.35;;;;;;;6.27;58.90;101188.44;1757327;82;21493;-56
2023/05/02 03:42:08;;;;;;;13.83;4.00;;;;;;;6.30;58.93;101194.09;1757182;82;21535;-57
2023/05/02 03:44:37;;;;;;;10.03;3.52;;;;;;;6.33;59.04;101193.28;1757454;82;21165;-56
2023/05/02 03:47:06;;;;;;;7.90;2.92;;;;;;;6.40;58.83;101209.87;1757403;82;21001;-55
2023/05/02 03:49:36;;;;;;;8.98;3.45;;;;;;;6.47;58.67;101203.31;1757821;80;21049;-57
2023/05/02 03:52:05;;;;;;;9.33;3.95;;;;;;;6.57;58.45;101205.00;1757366;82;20994;-56
2023/05/02 03:54:35;;;;;;;10.40;3.80;;;;;;;6.68;58.93;101206.66;1757397;80;21022;-56
2023/05/02 03:57:04;;;;;;;10.48;4.75;;;;;;;6.77;58.94;101208.46;1757445;81;20990;-56
2023/05/02 03:59:34;;;;;;;18.15;8.03;;;;;;;6.84;58.55;101216.87;1757743;82;21018;-55
2023/05/02 04:02:04;;;;;;;22.48;10.35;;;;;;;6.96;58.00;101215.65;1757399;82;21571;-56
2023/05/02 04:04:42;;;;;;;18.42;8.03;;;;;;;7.08;57.42;101211.68;1757250;82;21466;-56
2023/05/02 04:07:17;;;;;;;21.80;8.33;;;;;;;7.21;57.00;101208.09;1757322;80;21485;-56
2023/05/02 04:09:44;;;;;;;16.17;7.50;;;;;;;7.35;56.73;101212.64;1757353;80;21065;-56
2023/05/02 04:12:15;;;;;;;20.12;7.03;;;;;;;7.48;56.49;101215.82;1757067;80;21030;-53
2023/05/02 04:14:45;;;;;;;19.27;6.05;;;;;;;7.61;56.37;101213.03;1757037;80;21050;-56
2023/05/02 04:17:17;;;;;;;14.18;4.28;;;;;;;7.72;56.17;101213.28;1757209;82;21077;-56
2023/05/02 04:19:48;;;;;;;14.35;4.90;;;;;;;7.86;55.69;101214.09;1757385;81;21072;-56
2023/05/02 04:22:17;;;;;;;14.55;4.05;;;;;;;7.99;55.51;101219.63;1757182;80;21046;-57
2023/05/02 04:24:48;;;;;;;13.53;4.25;;;;;;;8.11;54.90;101230.12;1755881;80;21026;-56
2023/05/02 04:27:17;;;;;;;11.10;3.77;;;;;;;8.25;54.24;101227.30;1757149;81;21018;-55
2023/05/02 04:29:52;;;;;;;21.68;4.78;;;;;;;8.39;53.49;101228.59;1757248;82;21910;-56
2023/05/02 04:32:22;;;;;;;9.38;3.98;;;;;;;8.53;52.23;101226.13;1757096;82;21037;-56
2023/05/02 04:34:52;;;;;;;18.05;5.12;;;;;;;8.68;51.17;101224.13;1757214;80;21427;-55
2023/05/02 04:37:23;;;;;;;7.37;2.98;;;;;;;8.82;50.20;101225.72;1757325;80;21480;-56
2023/05/02 04:39:52;;;;;;;8.10;2.87;;;;;;;8.97;48.87;101234.64;1757428;82;21061;-56
2023/05/02 04:42:23;;;;;;;9.48;3.20;;;;;;;9.10;47.92;101229.55;1756725;80;21026;-56
2023/05/02 04:44:53;;;;;;;9.33;3.10;;;;;;;9.23;47.40;101235.92;1755520;80;21003;-56
2023/05/02 04:47:24;;;;;;;6.70;2.92;;;;;;;9.35;46.56;101238.16;1757135;82;21445;-56
2023/05/02 04:49:53;;;;;;;9.03;2.80;;;;;;;9.46;45.94;101229.63;1756979;82;21018;-57
2023/05/02 04:52:22;;;;;;;4.65;2.67;;;;;;;9.58;45.63;101238.34;1757156;80;21077;-56
2023/05/02 04:54:51;;;;;;;5.83;2.62;;;;;;;9.67;45.14;101237.83;1757035;80;21061;-57
2023/05/02 04:57:22;;;;;;;9.15;3.47;;;;;;;9.73;44.91;101236.63;1757375;82;21081;-58
2023/05/02 04:59:53;;;;;;;5.35;2.45;;;;;;;9.80;44.65;101237.69;1756699;82;21906;-57
2023/05/02 05:02:22;;;;;;;7.80;3.10;;;;;;;9.90;44.13;101244.34;1756967;82;21077;-56
2023/05/02 05:04:51;;;;;;;4.20;2.50;;;;;;;9.98;43.88;101240.23;1729585;82;21022;-55
2023/05/02 05:07:21;;;;;;;5.35;3.05;;;;;;;10.04;43.79;101245.52;1756989;80;20998;-56
2023/05/02 05:09:51;;;;;;;6.33;2.60;;;;;;;10.09;43.86;101243.12;1756890;82;20982;-55
2023/05/02 05:12:23;;;;;;;8.00;2.77;;;;;;;10.16;43.81;101244.98;1757083;80;21073;-56
2023/05/02 05:14:52;;;;;;;9.88;3.12;;;;;;;10.25;43.67;101252.70;1757376;82;21038;-56
2023/05/02 05:17:22;;;;;;;10.18;2.98;;;;;;;10.30;43.40;101243.96;1757112;80;21441;-55
2023/05/02 05:19:51;;;;;;;8.08;3.22;;;;;;;10.35;43.50;101250.63;1757145;82;21410;-55
2023/05/02 05:22:21;;;;;;;9.33;3.35;;;;;;;10.43;43.54;101245.15;1757261;80;21057;-55
2023/05/02 05:24:53;;;;;;;7.60;3.17;;;;;;;10.52;43.48;101247.86;1757256;80;21456;-56
2023/05/02 05:27:24;;;;;;;11.90;3.85;;;;;;;10.58;43.25;101249.38;1757389;82;21070;-55
2023/05/02 05:29:54;;;;;;;8.48;3.55;;;;;;;10.63;43.39;101252.95;1757076;82;21998;-56
2023/05/02 05:32:23;;;;;;;9.80;3.40;;;;;;;10.67;43.31;101254.31;1757049;80;21018;-57
2023/05/02 05:34:53;;;;;;;10.45;3.72;;;;;;;10.73;43.03;101250.34;1757256;82;21042;-56
2023/05/02 05:37:24;;;;;;;10.93;3.80;;;;;;;10.76;43.13;101251.88;1757117;81;21030;-55
2023/05/02 05:39:53;;;;;;;10.13;3.75;;;;;;;10.80;43.44;101255.97;1729500;82;21054;-55
2023/05/02 05:42:23;;;;;;;10.28;4.08;;;;;;;10.82;43.33;101255.79;1757066;80;21022;-56
2023/05/02 05:44:53;;;;;;;13.83;3.80;;;;;;;10.84;43.48;101258.69;1757136;80;21018;-56
2023/05/02 05:47:22;;;;;;;11.80;3.40;;;;;;;10.86;43.39;101253.87;1757333;80;21117;-55
2023/05/02 05:49:54;;;;;;;8.10;3.00;;;;;;;10.89;43.49;101252.67;1757102;80;21053;-57
2023/05/02 05:52:24;;;;;;;7.00;2.80;;;;;;;10.92;43.12;101253.68;1757318;80;21014;-56
2023/05/02 05:54:58;;;;;;;13.72;3.05;;;;;;;10.93;42.58;101250.77;1757259;82;21434;-56
2023/05/02 05:57:29;;;;;;;5.03;1.95;;;;;;;10.96;42.41;101255.03;1757225;80;21057;-57
2023/05/02 05:59:58;;;;;;;5.65;2.33;;;;;;;10.99;41.85;101256.89;1757152;81;21010;-56
2023/05/02 06:02:27;;;;;;;4.22;2.33;;;;;;;11.01;41.54;101251.23;1745966;81;21071;-57
2023/05/02 06:04:56;;;;;;;5.53;2.33;;;;;;;11.04;41.42;101250.35;1733236;83;21451;-55
2023/05/02 06:07:26;;;;;;;6.80;1.77;;;;;;;11.07;41.10;101252.77;1733212;83;21057;-58
2023/05/02 06:09:54;;;;;;;9.90;2.00;;;;;;;11.09;40.30;101246.59;1732933;81;21269;-58
2023/05/02 06:12:26;;;;;;;4.53;2.00;;;;;;;11.11;40.22;101247.27;1733239;83;21463;-57
2023/05/02 06:14:54;;;;;;;4.30;1.70;;;;;;;11.15;40.18;101255.13;1733144;83;21011;-57
2023/05/02 06:17:23;;;;;;;4.87;1.80;;;;;;;11.18;39.19;101246.02;1733038;82;21030;-58
2023/05/02 06:19:53;;;;;;;7.05;2.20;;;;;;;11.23;39.13;101253.70;1733143;81;21524;-59
2023/05/02 06:22:23;;;;;;;6.22;1.90;;;;;;;11.26;39.17;101246.48;1733097;81;21046;-58
2023/05/02 06:24:53;;;;;;;8.98;2.22;;;;;;;11.35;38.88;101253.11;1733243;81;21031;-58
2023/05/02 06:27:23;;;;;;;8.68;2.27;;;;;;;11.65;38.49;101250.48;1732903;81;21078;-59
2023/05/02 06:29:52;;;;;;;6.62;1.85;;;;;;;12.06;37.90;101252.41;1733259;81;21473;-59
2023/05/02 06:32:21;;;;;;;5.62;2.00;;;;;;;12.53;37.44;101255.37;1733147;82;21498;-58
2023/05/02 06:34:51;;;;;;;4.10;1.60;;;;;;;13.05;35.68;101249.75;1733426;81;21485;-59
2023/05/02 06:37:20;;;;;;;5.50;1.80;;;;;;;13.51;35.52;101253.56;1733066;83;21019;-59
2023/05/02 06:39:49;;;;;;;6.45;1.85;;;;;;;13.98;35.02;101250.75;1733201;81;21059;-58
2023/05/02 06:42:17;;;;;;;4.67;2.37;;;;;;;14.50;34.99;101251.20;1733210;81;21439;-58
2023/05/02 06:44:48;;;;;;;6.40;1.92;;;;;;;15.05;34.43;101249.91;1733301;83;21540;-57
2023/05/02 06:47:16;;;;;;;6.35;1.95;;;;;;;15.54;33.34;101244.95;1712753;83;21509;-57
2023/05/02 06:49:45;;;;;;;8.70;2.17;;;;;;;15.89;32.78;101243.45;1733333;81;21075;-57
2023/05/02 06:52:14;;;;;;;6.22;2.08;;;;;;;16.22;32.23;101246.74;1733331;81;21449;-56
2023/05/02 06:54:42;;;;;;;9.80;3.27;;;;;;;16.43;32.15;101243.23;1733318;82;21062;-57
2023/05/02 06:57:11;;;;;;;8.43;2.92;;;;;;;16.71;31.52;101249.05;1733006;81;21067;-58
2023/05/02 06:59:40;;;;;;;4.60;1.95;;;;;;;16.98;31.14;101251.22;1733191;83;21540;-58
2023/05/02 07:02:10;;;;;;;9.40;2.27;;;;;;;17.28;30.94;101250.13;1732998;81;21054;-55
2023/05/02 07:04:39;;;;;;;6.25;1.90;;;;;;;17.51;30.18;101253.72;1733071;81;21083;-56
2023/05/02 07:07:08;;;;;;;7.83;2.35;;;;;;;17.70;29.25;101248.64;1733195;83;21019;-57
2023/05/02 07:09:37;;;;;;;7.08;2.40;;;;;;;17.79;29.10;101245.91;1733296;81;21062;-56
2023/05/02 07:12:05;;;;;;;4.87;1.92;;;;;;;17.97;29.31;101250.14;1733209;81;21015;-55
2023/05/02 07:14:35;;;;;;;13.45;3.20;;;;;;;18.22;28.75;101244.63;1733283;81;21459;-57
2023/05/02 07:17:04;;;;;;;8.28;2.77;;;;;;;18.36;28.33;101240.64;1733428;81;21043;-57
2023/05/02 07:19:33;;;;;;;9.73;2.70;;;;;;;18.54;28.53;101249.53;1733404;82;21011;-57
2023/05/02 07:22:02;;;;;;;8.10;2.37;;;;;;;18.78;28.45;101246.95;1733178;83;21516;-56
2023/05/02 07:24:32;;;;;;;3.70;1.90;;;;;;;19.02;27.52;101250.22;1733466;83;21493;-58
2023/05/02 07:27:02;;;;;;;6.87;1.92;;;;;;;19.04;27.00;101245.81;1733390;83;21470;-57
2023/05/02 07:29:30;;;;;;;12.47;3.65;;;;;;;19.03;27.28;101246.36;1733172;81;21023;-56
2023/05/02 07:31:59;;;;;;;6.00;2.37;;;;;;;19.13;27.62;101241.09;1733184;83;21466;-57
2023/05/02 07:34:29;;;;;;;5.97;2.22;;;;;;;19.36;27.08;101243.67;1733296;82;21467;-57
2023/05/02 07:36:58;;;;;;;8.05;2.65;;;;;;;19.45;27.14;101236.16;1733465;81;21071;-57
2023/05/02 07:39:27;;;;;;;5.15;2.25;;;;;;;19.74;27.03;101242.84;1733472;81;21082;-57
2023/05/02 07:41:55;;;;;;;11.18;4.33;;;;;;;20.00;26.47;101240.18;1733642;81;21035;-56
2023/05/02 07:44:24;;;;;;;6.92;2.67;;;;;;;20.13;26.36;101248.30;1733956;82;21035;-57
2023/05/02 07:46:54;;;;;;;12.68;2.70;;;;;;;20.23;25.80;101242.17;1733649;81;21047;-58
2023/05/02 07:49:23;;;;;;;5.65;2.33;;;;;;;20.28;25.39;101240.05;1733408;81;21012;-58
2023/05/02 07:51:51;;;;;;;6.92;2.33;;;;;;;20.41;25.34;101247.66;1735213;79;21027;-59
2023/05/02 07:54:21;;;;;;;5.95;2.40;;;;;;;20.48;24.85;101244.20;1774277;81;21071;-59
2023/05/02 07:56:50;;;;;;;7.35;2.60;;;;;;;20.52;24.90;101239.84;1774405;81;21048;-59
2023/05/02 07:59:18;;;;;;;6.35;2.75;;;;;;;20.60;24.31;101234.98;1763781;81;21032;-56
2023/05/02 08:01:47;;;;;;;6.65;2.40;;;;;;;20.68;23.56;101230.44;1774258;81;21497;-59
2023/05/02 08:04:16;;;;;;;7.80;3.08;;;;;;;20.70;23.93;101231.05;1761708;80;21544;-58
2023/05/02 08:06:45;;;;;;;8.00;2.67;;;;;;;20.72;24.26;101228.86;1752840;81;21428;-57
2023/05/02 08:09:16;;;;;;;6.47;2.50;;;;;;;20.84;23.92;101226.38;1774440;81;21075;-58
2023/05/02 08:11:45;;;;;;;9.08;2.17;;;;;;;20.95;24.44;101228.84;1749458;81;21062;-58
2023/05/02 08:14:15;;;;;;;13.90;5.55;;;;;;;21.00;23.07;101228.95;1732823;83;21078;-58
2023/05/02 08:16:44;;;;;;;9.20;2.80;;;;;;;20.97;22.85;101221.08;1733067;81;21019;-58
2023/05/02 08:19:14;;;;;;;4.25;2.00;;;;;;;20.94;22.21;101227.69;1734717;82;21079;-59
2023/05/02 08:21:44;;;;;;;9.10;2.52;;;;;;;20.94;22.21;101229.09;1743813;82;21591;-58
2023/05/02 08:24:12;;;;;;;8.75;2.40;;;;;;;20.99;22.43;101225.86;1743661;82;21012;-59
2023/05/02 08:26:41;;;;;;;5.35;2.50;;;;;;;20.99;22.54;101218.05;1743971;82;21020;-60
2023/05/02 08:29:11;;;;;;;9.75;2.75;;;;;;;20.96;22.73;101222.17;1743659;81;21020;-59
2023/05/02 08:31:40;;;;;;;6.92;2.33;;;;;;;21.04;23.10;101225.97;1743377;82;21092;-59
2023/05/02 08:34:09;;;;;;;4.50;2.00;;;;;;;21.16;22.83;101219.81;1743748;82;21012;-58
2023/05/02 08:36:38;;;;;;;28.17;5.62;;;;;;;21.34;22.34;101224.38;1753077;81;20976;-57
2023/05/02 08:39:08;;;;;;;8.45;2.58;;;;;;;21.41;22.90;101215.31;1774210;81;21491;-58
2023/05/02 08:41:37;;;;;;;6.08;2.00;;;;;;;21.53;23.14;101220.02;1774433;81;21091;-58
2023/05/02 08:44:06;;;;;;;8.38;2.52;;;;;;;21.57;22.97;101217.87;1774313;81;21472;-59
2023/05/02 08:46:36;;;;;;;10.48;2.50;;;;;;;21.59;22.83;101219.02;1774187;81;21036;-60
2023/05/02 08:49:05;;;;;;;8.00;2.10;;;;;;;21.69;22.96;101208.04;1773862;80;21495;-59
2023/05/02 08:51:34;;;;;;;8.45;2.85;;;;;;;21.71;22.66;101206.69;1774299;81;21036;-59
2023/05/02 08:54:04;;;;;;;5.30;2.12;;;;;;;21.67;23.35;101199.08;1774301;81;21075;-59
2023/05/02 08:56:33;;;;;;;4.12;1.82;;;;;;;21.77;23.73;101188.09;1774409;79;21043;-56
2023/05/02 08:59:03;;;;;;;6.15;2.27;;;;;;;21.85;23.17;101186.28;1774236;81;21095;-60
2023/05/02 09:01:32;;;;;;;5.75;1.80;;;;;;;21.80;23.62;101180.06;1774093;80;21466;-57
2023/05/02 09:04:01;;;;;;;3.87;1.80;;;;;;;21.72;23.20;101183.27;1774343;80;21440;-60
2023/05/02 09:06:30;;;;;;;9.45;3.08;;;;;;;21.49;23.24;101184.27;1774420;79;21617;-59
2023/05/02 09:08:59;;;;;;;5.92;1.77;;;;;;;21.30;23.69;101184.70;1773977;80;21589;-58
2023/05/02 09:11:28;;;;;;;6.10;2.12;;;;;;;21.17;23.15;101180.23;1749250;81;21094;-59
2023/05/02 09:14:02;;;;;;;7.12;1.90;;;;;;;21.01;23.40;101172.13;1732813;83;21015;-59
2023/05/02 09:16:30;;;;;;;7.92;1.80;;;;;;;20.89;23.54;101166.59;1733104;82;21055;-59
2023/05/02 09:19:00;;;;;;;6.17;1.70;;;;;;;20.83;23.64;101175.94;1689427;83;21130;-57
2023/05/02 09:21:37;;;;;;;8.18;2.33;;;;;;;20.75;23.46;101164.31;1732750;81;21467;-60
2023/05/02 09:24:21;;;;;;;4.37;1.50;;;;;;;20.64;23.61;101161.00;1732751;83;21744;-59
2023/05/02 09:27:01;;;;;;;8.48;2.05;;;;;;;20.49;23.36;101167.09;1733107;81;21481;-58
2023/05/02 09:29:37;;;;;;;6.37;2.72;;;;;;;20.30;23.70;101160.79;1732811;81;21035;-58
2023/05/02 09:32:07;;;;;;;7.03;2.20;;;;;;;20.21;24.21;101156.14;1732762;81;21078;-59
2023/05/02 09:34:38;;;;;;;5.08;2.10;;;;;;;20.18;23.85;101150.20;1733108;81;21027;-59
2023/05/02 09:37:07;;;;;;;5.90;1.55;;;;;;;20.08;23.71;101151.33;1733007;82;21166;-58
2023/05/02 09:39:36;;;;;;;4.05;1.70;;;;;;;19.99;23.68;101148.06;1732932;83;21078;-57
2023/05/02 09:42:04;;;;;;;11.33;3.27;;;;;;;19.85;23.85;101150.78;1732560;81;21074;-59
2023/05/02 09:44:37;;;;;;;4.03;1.62;;;;;;;19.76;23.60;101148.91;1732739;81;21469;-57
2023/05/02 09:47:06;;;;;;;5.67;2.00;;;;;;;19.73;23.91;101142.97;1732791;83;21019;-58
2023/05/02 09:49:45;;;;;;;7.78;2.90;;;;;;;19.67;24.08;101138.37;1689537;83;21126;-58
2023/05/02 09:52:20;;;;;;;6.92;2.22;;;;;;;19.68;24.40;101135.35;1712912;83;21031;-58
2023/05/02 09:54:52;;;;;;;6.87;2.40;;;;;;;19.70;24.06;101136.50;1732743;83;21082;-58
2023/05/02 09:57:22;;;;;;;6.67;1.98;;;;;;;19.68;23.74;101139.52;1733027;81;21079;-58
2023/05/02 09:59:55;;;;;;;8.40;1.77;;;;;;;19.62;23.99;101134.38;1732846;81;21059;-57
2023/05/02 10:02:24;;;;;;;6.83;1.80;;;;;;;19.57;24.23;101142.59;1733069;81;21043;-59
2023/05/02 10:04:57;;;;;;;4.17;1.70;;;;;;;19.57;24.30;101139.81;1743641;82;21034;-57
2023/05/02 10:07:27;;;;;;;7.28;1.70;;;;;;;19.55;24.02;101135.03;1756789;80;21033;-61
2023/05/02 10:09:56;;;;;;;10.28;2.20;;;;;;;19.49;24.23;101135.08;1756902;82;21009;-59
2023/05/02 10:12:25;;;;;;;4.33;1.60;;;;;;;19.43;24.24;101133.25;1787612;80;21456;-58
2023/05/02 10:14:59;;;;;;;3.60;1.35;;;;;;;19.38;24.26;101134.51;1788389;80;21012;-57
2023/05/02 10:17:35;;;;;;;4.65;1.70;;;;;;;19.31;24.21;101136.84;1788033;80;21023;-58
2023/05/02 10:20:06;;;;;;;5.37;1.62;;;;;;;19.20;24.49;101144.61;1787908;80;21039;-56
2023/05/02 10:22:36;;;;;;;5.42;1.67;;;;;;;19.21;24.76;101135.19;1788105;80;21039;-57
2023/05/02 10:25:06;;;;;;;4.03;1.90;;;;;;;19.20;24.46;101126.55;1787908;80;21020;-57
2023/05/02 10:27:36;;;;;;;6.35;1.67;;;;;;;19.17;24.46;101121.47;1787913;80;21051;-58
2023/05/02 10:30:07;;;;;;;4.25;1.47;;;;;;;19.13;24.62;101125.80;1787916;80;21036;-59
2023/05/02 10:32:36;;;;;;;6.05;1.65;;;;;;;19.06;24.23;101127.83;1787856;80;21012;-57
2023/05/02 10:35:09;;;;;;;5.28;1.45;;;;;;;18.99;24.53;101128.47;1787900;80;20999;-58
2023/05/02 10:37:38;;;;;;;7.60;2.00;;;;;;;19.00;24.86;101129.63;1788074;80;21036;-59
2023/05/02 10:40:11;;;;;;;7.12;1.62;;;;;;;19.00;24.73;101123.22;1788179;80;21111;-59
2023/05/02 10:42:42;;;;;;;10.40;3.08;;;;;;;18.96;24.81;101119.22;1788203;80;21023;-61
2023/05/02 10:45:33;;;;;;;5.90;2.20;;;;;;;18.90;25.12;101114.61;1788043;79;21063;-58
2023/05/02 10:48:23;;;;;;;5.70;2.22;;;;;;;18.92;24.89;101118.84;1788317;80;21083;-56
2023/05/02 10:50:54;;;;;;;6.20;2.02;;;;;;;18.93;25.19;101119.15;1788117;80;21459;-58
2023/05/02 10:53:43;;;;;;;5.17;1.67;;;;;;;18.95;25.32;101105.88;1788014;80;21047;-58
2023/05/02 10:56:20;;;;;;;4.15;1.60;;;;;;;18.92;25.16;101106.88;1788295;80;21039;-59
2023/05/02 10:58:49;;;;;;;6.72;2.65;;;;;;;18.93;25.14;101094.16;1788761;80;21059;-60
2023/05/02 11:01:36;;;;;;;5.00;2.30;;;;;;;18.95;25.27;101100.86;1789173;80;21051;-61
2023/05/02 11:04:08;;;;;;;4.08;1.72;;;;;;;18.90;24.84;101101.56;1788585;80;21031;-59
2023/05/02 11:06:59;;;;;;;6.20;1.60;;;;;;;18.85;24.49;101097.23;1788186;79;20996;-59
2023/05/02 11:09:31;;;;;;;5.60;1.77;;;;;;;18.76;24.94;101096.41;1788102;80;21003;-58
2023/05/02 11:12:00;;;;;;;2.87;1.20;;;;;;;18.76;25.23;101103.34;1762648;79;21096;-58
2023/05/02 11:14:41;;;;;;;3.72;1.40;;;;;;;18.79;24.98;101094.55;1756958;80;21664;-58
2023/05/02 11:17:10;;;;;;;5.87;2.00;;;;;;;18.75;25.07;101094.70;1757144;82;21029;-58
2023/05/02 11:19:48;;;;;;;3.52;1.67;;;;;;;18.76;25.36;101099.18;1757322;82;21038;-59
2023/05/02 11:22:25;;;;;;;6.10;1.75;;;;;;;18.81;25.63;101098.78;1757025;80;21033;-59
2023/05/02 11:24:53;;;;;;;4.80;1.80;;;;;;;18.88;25.41;101088.45;1757067;82;21081;-58
2023/05/02 11:27:42;;;;;;;4.45;1.80;;;;;;;18.91;25.05;101090.77;1757238;80;21022;-56
2023/05/02 11:30:11;;;;;;;3.80;1.80;;;;;;;18.89;25.33;101090.69;1757207;80;21038;-57
2023/05/02 11:32:52;;;;;;;6.25;2.00;;;;;;;18.87;25.01;101080.36;1756973;80;21476;-59
2023/05/02 11:35:30;;;;;;;7.42;2.00;;;;;;;18.91;25.33;101080.20;1756974;80;21486;-58
2023/05/02 11:38:06;;;;;;;5.30;1.60;;;;;;;18.95;24.99;101079.48;1756841;82;21038;-60
2023/05/02 11:40:36;;;;;;;5.90;1.40;;;;;;;18.97;24.68;101076.47;1757011;82;21476;-58
2023/05/02 11:43:16;;;;;;;9.30;2.27;;;;;;;18.97;24.86;101082.03;1756962;81;21474;-59
2023/05/02 11:45:45;;;;;;;6.42;1.85;;;;;;;18.93;25.18;101088.59;1757092;80;21059;-61